الصفحة الرئيسية
METAR-TAF:

METAR-TAF

مطار :

مطار بغداد الدولي

بغداد, العراق

دائرة عرض: 33-15-45N, خط طول: 44-14-04E, ارتفاع: 35 متر

مراقبة الطقس الحالي

تاريخ ووقت الإصدار 18 دقيقة قبل الساعة 05:00UTC
ريح 4 عقدة من الشمال, الاتجاه يتراوح بين الشمال/الشمال الغربي و الشرق/الشمال الشرقي
درجة الحرارة 40°درجة مئوية
الرطوبة 13%
ضغط 1004 hPa
الرؤية 10 كم أو أكثر
الغيوم لا تقل 1500 م ولا وجود لمزنة ركامية السحاب الأسود

METAR: ORBI 190500Z 01004KT 330V070 CAVOK 40/06 Q1004 NOSIG

زمن: 08:18 (05:18 UTC)

توقعات

تاريخ ووقت الإصدار 7ساعات و 18 دقيقة قبل الساعة 22:00UTC
التوقعات صالحة من19 الساعة 00 UTC إلى 19 الساعة 24 UTC
ريح 10 عقدة من الشمال
الرؤية: 8000 متر

TAF: ORBI 182200Z 1900/1924 35010KT 8000 NSC

أرصاد الطقس والتوقعات من أكثر من 4000 مطار (تقارير الطقس للمطار METAR والتنبؤ بالطقس بالمطارTAF).

المحطات المتاحة هي النقط الصفراء والحمراء على الخريطة.

حرك المؤشر فوق النقطة لمعرفة اسم المحطة.

ثم انقر لمعرفة أرصاد وتوقعات الطقس.

لتغيير الخارطة: اضغط على الأزرار الخضراء مع رمز الصليب الأسود للتكبير. على الزر الأخضر مع شرطة للتصغير، أو على الأسهم الخضراء للخرائط المجاورة.


METAR-TAF: